Time;durP1;ratioP1;P1;durP2;ratioP2;P2;SDS_P1;SDS_P2;PMS_P1;PMS_P2;Temp;Humidity;BMP_temperature;BMP_pressure;BME280_temperature;BME280_humidity;BME280_pressure;Samples;Min_cycle;Max_cycle;Signal;HPM_P1;HPM_P2
2022/10/15 00:00:29;;;;;;;;;;;;;;;;;;5012465;28;8395;-85
2022/10/15 00:02:55;;;;;;;;;;;;;;;;;;5012127;28;8397;-85
2022/10/15 00:05:21;;;;;;;;;;;;;;;;;;5012372;28;8488;-85
2022/10/15 00:07:47;;;;;;;;;;;;;;;;;;5023256;28;7154;-85
2022/10/15 00:10:13;;;;;;;;;;;;;;;;;;5015925;28;8404;-86
2022/10/15 00:12:39;;;;;;;;;;;;;;;;;;5015634;28;8580;-83
2022/10/15 00:15:06;;;;;;;;;;;;;;;;;;5015945;28;8407;-84
2022/10/15 00:17:32;;;;;;;;;;;;;;;;;;5015424;28;7485;-85
2022/10/15 00:19:58;;;;;;;;;;;;;;;;;;5015705;28;8644;-85
2022/10/15 00:22:23;;;;;;;;;;;;;;;;;;5015708;28;8780;-85
2022/10/15 00:24:49;;;;;;;;;;;;;;;;;;5015154;28;8523;-85
2022/10/15 00:27:14;;;;;;;;;;;;;;;;;;5015241;28;8424;-85
2022/10/15 00:29:40;;;;;;;;;;;;;;;;;;5015712;28;8686;-85
2022/10/15 00:32:06;;;;;;;;;;;;;;;;;;5015565;28;7120;-85
2022/10/15 00:34:31;;;;;;;;;;;;;;;;;;5015409;28;7115;-87
2022/10/15 00:36:56;;;;;;;;;;;;;;;;;;5015068;28;8723;-85
2022/10/15 00:39:22;;;;;;;;;;;;;;;;;;5015292;28;8402;-85
2022/10/15 00:41:47;;;;;;;;;;;;;;;;;;5015068;28;8574;-86
2022/10/15 00:44:28;;;;;;;;;;;;;;;;;;5015145;28;7187;-85
2022/10/15 00:46:58;;;;;;;;;;;;;;;;;;5031025;28;7336;-85
2022/10/15 00:49:27;;;;;;;;;;;;;;;;;;5014762;28;8823;-85
2022/10/15 00:51:56;;;;;;;;;;;;;;;;;;5015001;28;7328;-86
2022/10/15 00:54:24;;;;;;;;;;;;;;;;;;5014612;28;7038;-86
2022/10/15 00:56:51;;;;;;;;;;;;;;;;;;5014764;28;7044;-85
2022/10/15 00:59:22;;;;;;;;;;;;;;;;;;5015447;28;7060;-84
2022/10/15 01:01:47;;;;;;;;;;;;;;;;;;5014483;28;7039;-84
2022/10/15 01:04:13;;;;;;;;;;;;;;;;;;5014778;28;8404;-84
2022/10/15 01:06:39;;;;;;;;;;;;;;;;;;5014661;28;7245;-84
2022/10/15 01:09:05;;;;;;;;;;;;;;;;;;5014367;28;8451;-85
2022/10/15 01:11:43;;;;;;;;;;;;;;;;;;5014496;28;7019;-86
2022/10/15 01:14:28;;;;;;;;;;;;;;;;;;5031894;28;7020;-86
2022/10/15 01:16:59;;;;;;;;;;;;;;;;;;5014294;28;8542;-85
2022/10/15 01:19:28;;;;;;;;;;;;;;;;;;5030762;28;8303;-85
2022/10/15 01:22:02;;;;;;;;;;;;;;;;;;5031076;28;8385;-86
2022/10/15 01:24:33;;;;;;;;;;;;;;;;;;5014832;28;7012;-85
2022/10/15 01:27:18;;;;;;;;;;;;;;;;;;5030722;28;7160;-84
2022/10/15 01:30:02;;;;;;;;;;;;;;;;;;5030515;28;7034;-85
2022/10/15 01:32:29;;;;;;;;;;;;;;;;;;5030903;28;7084;-84
2022/10/15 01:34:54;;;;;;;;;;;;;;;;;;5013956;28;8435;-87
2022/10/15 01:37:41;;;;;;;;;;;;;;;;;;5030453;28;8428;-85
2022/10/15 01:40:13;;;;;;;;;;;;;;;;;;5013876;28;8445;-85
2022/10/15 01:42:52;;;;;;;;;;;;;;;;;;5014511;28;7185;-86
2022/10/15 01:45:24;;;;;;;;;;;;;;;;;;5016518;28;8416;-86
2022/10/15 01:47:56;;;;;;;;;;;;;;;;;;5014977;28;7030;-84
2022/10/15 01:50:25;;;;;;;;;;;;;;;;;;5015538;28;7157;-84
2022/10/15 01:52:54;;;;;;;;;;;;;;;;;;5015521;28;8695;-86
2022/10/15 01:55:23;;;;;;;;;;;;;;;;;;5014693;28;8787;-86
2022/10/15 01:57:49;;;;;;;;;;;;;;;;;;5013695;28;8465;-83
2022/10/15 02:00:16;;;;;;;;;;;;;;;;;;5017342;28;7048;-86
2022/10/15 02:02:41;;;;;;;;;;;;;;;;;;5017443;28;6972;-85
2022/10/15 02:05:12;;;;;;;;;;;;;;;;;;5019369;28;8406;-81
2022/10/15 02:07:57;;;;;;;;;;;;;;;;;;5019272;28;7055;-84
2022/10/15 02:10:30;;;;;;;;;;;;;;;;;;5035640;28;7080;-82
2022/10/15 02:13:14;;;;;;;;;;;;;;;;;;5019120;28;7172;-85
2022/10/15 02:15:43;;;;;;;;;;;;;;;;;;5035250;28;8717;-82
2022/10/15 02:18:15;;;;;;;;;;;;;;;;;;5034415;28;9390;-86
2022/10/15 02:20:40;;;;;;;;;;;;;;;;;;5017590;28;7401;-85
2022/10/15 02:23:11;;;;;;;;;;;;;;;;;;5033810;28;8014;-85
2022/10/15 02:25:40;;;;;;;;;;;;;;;;;;5017290;28;8773;-85
2022/10/15 02:28:08;;;;;;;;;;;;;;;;;;5018434;28;7234;-85
2022/10/15 02:30:36;;;;;;;;;;;;;;;;;;5017499;28;8484;-85
2022/10/15 02:33:03;;;;;;;;;;;;;;;;;;5018384;28;8406;-83
2022/10/15 02:35:28;;;;;;;;;;;;;;;;;;5018445;28;7152;-85
2022/10/15 02:37:59;;;;;;;;;;;;;;;;;;5018007;28;8441;-85
2022/10/15 02:40:27;;;;;;;;;;;;;;;;;;5034244;28;7153;-87
2022/10/15 02:42:54;;;;;;;;;;;;;;;;;;5019955;28;8544;-81
2022/10/15 02:45:20;;;;;;;;;;;;;;;;;;5019343;28;7495;-86
2022/10/15 02:47:46;;;;;;;;;;;;;;;;;;5017452;28;8555;-85
2022/10/15 02:50:11;;;;;;;;;;;;;;;;;;5016808;28;8440;-85
2022/10/15 02:52:37;;;;;;;;;;;;;;;;;;5016843;28;8291;-85
2022/10/15 02:55:02;;;;;;;;;;;;;;;;;;5017520;28;7364;-87
2022/10/15 02:57:28;;;;;;;;;;;;;;;;;;5016992;28;8391;-86
2022/10/15 02:59:54;;;;;;;;;;;;;;;;;;5017182;28;8390;-85
2022/10/15 03:02:19;;;;;;;;;;;;;;;;;;5018846;28;7011;-86
2022/10/15 03:04:45;;;;;;;;;;;;;;;;;;5018980;28;7140;-85
2022/10/15 03:07:11;;;;;;;;;;;;;;;;;;5021892;28;6967;-83
2022/10/15 03:09:36;;;;;;;;;;;;;;;;;;5021684;28;8469;-86
2022/10/15 03:12:02;;;;;;;;;;;;;;;;;;5022885;28;8246;-79
2022/10/15 03:14:27;;;;;;;;;;;;;;;;;;5019901;28;7201;-84
2022/10/15 03:16:52;;;;;;;;;;;;;;;;;;5017560;28;6965;-88
2022/10/15 03:19:18;;;;;;;;;;;;;;;;;;5017840;28;7192;-84
2022/10/15 03:21:44;;;;;;;;;;;;;;;;;;5017786;28;8971;-82
2022/10/15 03:24:09;;;;;;;;;;;;;;;;;;5017754;28;7132;-86
2022/10/15 03:26:35;;;;;;;;;;;;;;;;;;5017856;28;8400;-85
2022/10/15 03:29:01;;;;;;;;;;;;;;;;;;5016951;28;7146;-87
2022/10/15 03:31:26;;;;;;;;;;;;;;;;;;5016878;28;8539;-85
2022/10/15 03:33:52;;;;;;;;;;;;;;;;;;5017226;28;7349;-86
2022/10/15 03:36:17;;;;;;;;;;;;;;;;;;5016471;28;8549;-86
2022/10/15 03:38:43;;;;;;;;;;;;;;;;;;5017130;28;7036;-85
2022/10/15 03:41:08;;;;;;;;;;;;;;;;;;5015960;28;8472;-85
2022/10/15 03:43:33;;;;;;;;;;;;;;;;;;5016999;28;8390;-86
2022/10/15 03:46:03;;;;;;;;;;;;;;;;;;5016328;28;7016;-86
2022/10/15 03:48:29;;;;;;;;;;;;;;;;;;5015798;28;8572;-85
2022/10/15 03:50:55;;;;;;;;;;;;;;;;;;5016608;28;8441;-85
2022/10/15 03:53:21;;;;;;;;;;;;;;;;;;5015930;28;7139;-86
2022/10/15 03:55:46;;;;;;;;;;;;;;;;;;5015715;28;8356;-85
2022/10/15 03:58:12;;;;;;;;;;;;;;;;;;5016335;28;7091;-85
2022/10/15 04:00:40;;;;;;;;;;;;;;;;;;5015992;28;8564;-85
2022/10/15 04:03:05;;;;;;;;;;;;;;;;;;5016298;28;8652;-85
2022/10/15 04:05:31;;;;;;;;;;;;;;;;;;5016062;28;8536;-85
2022/10/15 04:07:56;;;;;;;;;;;;;;;;;;5015681;28;8264;-86
2022/10/15 04:10:21;;;;;;;;;;;;;;;;;;5016054;28;7172;-85
2022/10/15 04:12:47;;;;;;;;;;;;;;;;;;5015709;28;8463;-85
2022/10/15 04:15:12;;;;;;;;;;;;;;;;;;5016163;28;7019;-85
2022/10/15 04:17:38;;;;;;;;;;;;;;;;;;5016025;28;8652;-86
2022/10/15 04:20:04;;;;;;;;;;;;;;;;;;5015598;28;8405;-85
2022/10/15 04:22:29;;;;;;;;;;;;;;;;;;5014965;28;8574;-85
2022/10/15 04:24:55;;;;;;;;;;;;;;;;;;5015694;28;8448;-86
2022/10/15 04:27:20;;;;;;;;;;;;;;;;;;5015675;28;8494;-85
2022/10/15 04:29:47;;;;;;;;;;;;;;;;;;5015652;28;8488;-85
2022/10/15 04:32:16;;;;;;;;;;;;;;;;;;5015367;28;8344;-84
2022/10/15 04:34:42;;;;;;;;;;;;;;;;;;5015362;28;7181;-85
2022/10/15 04:37:08;;;;;;;;;;;;;;;;;;5015139;28;8441;-86
2022/10/15 04:39:33;;;;;;;;;;;;;;;;;;5015196;28;7023;-84
2022/10/15 04:41:58;;;;;;;;;;;;;;;;;;5015079;28;8689;-85
2022/10/15 04:44:24;;;;;;;;;;;;;;;;;;5014796;28;7152;-85
2022/10/15 04:46:49;;;;;;;;;;;;;;;;;;5015077;28;8472;-83
2022/10/15 04:49:15;;;;;;;;;;;;;;;;;;5014889;28;8615;-84
2022/10/15 04:51:40;;;;;;;;;;;;;;;;;;5014942;28;8442;-85
2022/10/15 04:54:06;;;;;;;;;;;;;;;;;;5014581;28;7143;-87
2022/10/15 04:56:31;;;;;;;;;;;;;;;;;;5014491;28;8457;-85
2022/10/15 04:58:57;;;;;;;;;;;;;;;;;;5014520;28;7382;-85
2022/10/15 05:01:22;;;;;;;;;;;;;;;;;;5014545;28;7147;-83
2022/10/15 05:03:48;;;;;;;;;;;;;;;;;;5015103;28;8533;-83
2022/10/15 05:06:16;;;;;;;;;;;;;;;;;;5014741;28;8673;-84
2022/10/15 05:08:42;;;;;;;;;;;;;;;;;;5014687;28;7266;-85
2022/10/15 05:11:18;;;;;;;;;;;;;;;;;;5015036;28;7182;-85
2022/10/15 05:13:44;;;;;;;;;;;;;;;;;;5014371;28;8295;-85
2022/10/15 05:16:10;;;;;;;;;;;;;;;;;;5014677;28;7185;-84
2022/10/15 05:18:35;;;;;;;;;;;;;;;;;;5031138;28;8559;-85
2022/10/15 05:21:01;;;;;;;;;;;;;;;;;;5005121;28;6990;-85
2022/10/15 05:23:26;;;;;;;;;;;;;;;;;;4998314;28;8396;-86
2022/10/15 05:25:52;;;;;;;;;;;;;;;;;;4991473;28;8392;-84
2022/10/15 05:28:18;;;;;;;;;;;;;;;;;;4997359;28;7155;-84
2022/10/15 05:30:44;;;;;;;;;;;;;;;;;;4999591;28;7004;-86
2022/10/15 05:33:10;;;;;;;;;;;;;;;;;;4997649;28;7058;-85
2022/10/15 05:35:36;;;;;;;;;;;;;;;;;;5009022;28;8789;-85
2022/10/15 05:38:03;;;;;;;;;;;;;;;;;;5010541;28;8442;-83
2022/10/15 05:40:29;;;;;;;;;;;;;;;;;;5008334;28;7264;-85
2022/10/15 05:42:55;;;;;;;;;;;;;;;;;;5000011;28;8854;-86
2022/10/15 05:45:21;;;;;;;;;;;;;;;;;;5010598;28;8501;-85
2022/10/15 05:47:46;;;;;;;;;;;;;;;;;;4992589;28;7343;-86
2022/10/15 05:50:12;;;;;;;;;;;;;;;;;;4990828;28;7399;-84
2022/10/15 05:52:37;;;;;;;;;;;;;;;;;;4991517;28;7103;-85
2022/10/15 05:55:03;;;;;;;;;;;;;;;;;;5010617;28;7364;-86
2022/10/15 05:57:28;;;;;;;;;;;;;;;;;;5010985;28;7002;-85
2022/10/15 05:59:53;;;;;;;;;;;;;;;;;;5011275;28;7374;-85
2022/10/15 06:02:19;;;;;;;;;;;;;;;;;;5010519;28;8605;-84
2022/10/15 06:04:45;;;;;;;;;;;;;;;;;;5011102;28;7123;-85
2022/10/15 06:07:11;;;;;;;;;;;;;;;;;;5010407;28;8300;-86
2022/10/15 06:09:36;;;;;;;;;;;;;;;;;;5010178;28;7139;-85
2022/10/15 06:12:02;;;;;;;;;;;;;;;;;;5010574;28;8411;-85
2022/10/15 06:14:29;;;;;;;;;;;;;;;;;;5010382;28;8404;-84
2022/10/15 06:16:54;;;;;;;;;;;;;;;;;;5010901;28;7159;-84
2022/10/15 06:19:20;;;;;;;;;;;;;;;;;;5010716;28;8347;-85
2022/10/15 06:21:46;;;;;;;;;;;;;;;;;;5011232;28;7339;-86
2022/10/15 06:24:11;;;;;;;;;;;;;;;;;;5010648;28;8387;-84
2022/10/15 06:26:37;;;;;;;;;;;;;;;;;;5010535;28;8394;-84
2022/10/15 06:29:03;;;;;;;;;;;;;;;;;;5010763;28;7090;-85
2022/10/15 06:31:28;;;;;;;;;;;;;;;;;;5010837;28;7112;-86
2022/10/15 06:33:53;;;;;;;;;;;;;;;;;;5010127;28;6997;-84
2022/10/15 06:36:20;;;;;;;;;;;;;;;;;;5011088;28;7339;-85
2022/10/15 06:38:46;;;;;;;;;;;;;;;;;;5010865;28;7312;-85
2022/10/15 06:41:12;;;;;;;;;;;;;;;;;;5010289;28;7136;-84
2022/10/15 06:43:37;;;;;;;;;;;;;;;;;;5010636;28;7188;-84
2022/10/15 06:46:05;;;;;;;;;;;;;;;;;;5014309;28;8549;-82
2022/10/15 06:48:31;;;;;;;;;;;;;;;;;;5013865;28;7349;-85
2022/10/15 06:50:58;;;;;;;;;;;;;;;;;;5013713;28;7035;-84
2022/10/15 06:53:24;;;;;;;;;;;;;;;;;;5014141;28;8419;-85
2022/10/15 06:55:49;;;;;;;;;;;;;;;;;;5013564;28;8405;-85
2022/10/15 06:58:14;;;;;;;;;;;;;;;;;;5013906;28;7120;-81
2022/10/15 07:00:40;;;;;;;;;;;;;;;;;;5013409;28;8581;-84
2022/10/15 07:03:06;;;;;;;;;;;;;;;;;;5013405;28;7225;-86
2022/10/15 07:05:33;;;;;;;;;;;;;;;;;;5013968;28;7247;-85
2022/10/15 07:07:59;;;;;;;;;;;;;;;;;;5013648;28;8461;-85
2022/10/15 07:10:26;;;;;;;;;;;;;;;;;;5012854;28;7436;-86
2022/10/15 07:12:53;;;;;;;;;;;;;;;;;;5012769;28;8525;-86
2022/10/15 07:15:20;;;;;;;;;;;;;;;;;;5012492;28;8392;-84
2022/10/15 07:17:50;;;;;;;;;;;;;;;;;;5012919;28;7169;-85
2022/10/15 07:20:16;;;;;;;;;;;;;;;;;;5013511;28;8431;-84
2022/10/15 07:22:41;;;;;;;;;;;;;;;;;;5013096;28;7472;-84
2022/10/15 07:25:09;;;;;;;;;;;;;;;;;;5012820;28;8673;-84
2022/10/15 07:27:34;;;;;;;;;;;;;;;;;;5013970;28;7138;-86
2022/10/15 07:30:00;;;;;;;;;;;;;;;;;;5012933;28;8506;-83
2022/10/15 07:32:26;;;;;;;;;;;;;;;;;;5012972;28;8275;-84
2022/10/15 07:34:51;;;;;;;;;;;;;;;;;;5012870;28;7245;-84
2022/10/15 07:37:17;;;;;;;;;;;;;;;;;;5012869;28;7970;-84
2022/10/15 07:39:43;;;;;;;;;;;;;;;;;;5013381;28;7150;-84
2022/10/15 07:42:08;;;;;;;;;;;;;;;;;;5012593;28;7029;-84
2022/10/15 07:44:34;;;;;;;;;;;;;;;;;;5012795;28;8427;-82
2022/10/15 07:46:59;;;;;;;;;;;;;;;;;;5012639;28;7202;-85
2022/10/15 07:49:24;;;;;;;;;;;;;;;;;;5012583;28;7167;-84
2022/10/15 07:51:50;;;;;;;;;;;;;;;;;;5013627;28;8626;-84
2022/10/15 07:54:15;;;;;;;;;;;;;;;;;;5013170;28;7079;-84
2022/10/15 07:56:41;;;;;;;;;;;;;;;;;;5010920;28;7126;-83
2022/10/15 07:59:07;;;;;;;;;;;;;;;;;;5012078;28;8480;-86
2022/10/15 08:01:32;;;;;;;;;;;;;;;;;;5012999;28;7035;-85
2022/10/15 08:03:58;;;;;;;;;;;;;;;;;;5012476;28;8371;-84
2022/10/15 08:06:24;;;;;;;;;;;;;;;;;;5012331;28;7173;-84
2022/10/15 08:08:49;;;;;;;;;;;;;;;;;;5012446;28;8409;-85
2022/10/15 08:11:15;;;;;;;;;;;;;;;;;;5012444;28;7314;-83
2022/10/15 08:13:41;;;;;;;;;;;;;;;;;;5012605;28;8455;-85
2022/10/15 08:16:11;;;;;;;;;;;;;;;;;;5012348;28;8659;-84
2022/10/15 08:18:37;;;;;;;;;;;;;;;;;;5012029;28;8450;-84
2022/10/15 08:21:05;;;;;;;;;;;;;;;;;;5011914;28;8411;-85
2022/10/15 08:23:31;;;;;;;;;;;;;;;;;;5012107;28;8490;-84
2022/10/15 08:25:59;;;;;;;;;;;;;;;;;;5010955;28;8306;-83
2022/10/15 08:28:25;;;;;;;;;;;;;;;;;;5010798;28;8316;-81
2022/10/15 08:30:50;;;;;;;;;;;;;;;;;;5011414;28;8340;-84
2022/10/15 08:33:16;;;;;;;;;;;;;;;;;;5010565;28;7316;-82
2022/10/15 08:35:42;;;;;;;;;;;;;;;;;;5011165;28;7147;-84
2022/10/15 08:38:08;;;;;;;;;;;;;;;;;;5011031;28;7041;-82
2022/10/15 08:40:35;;;;;;;;;;;;;;;;;;5011175;28;7182;-86
2022/10/15 08:43:01;;;;;;;;;;;;;;;;;;5015021;28;7507;-84
2022/10/15 08:45:43;;;;;;;;;;;;;;;;;;5014907;28;7173;-84
2022/10/15 08:48:20;;;;;;;;;;;;;;;;;;5014711;28;7205;-85
2022/10/15 08:50:52;;;;;;;;;;;;;;;;;;5015038;28;7236;-85
2022/10/15 08:53:21;;;;;;;;;;;;;;;;;;5014661;28;7172;-84
2022/10/15 08:55:54;;;;;;;;;;;;;;;;;;5015050;28;8717;-87
2022/10/15 08:58:25;;;;;;;;;;;;;;;;;;5015080;28;7150;-84
2022/10/15 09:00:53;;;;;;;;;;;;;;;;;;5014613;28;8446;-86
2022/10/15 09:03:37;;;;;;;;;;;;;;;;;;5014806;28;8475;-85
2022/10/15 09:06:09;;;;;;;;;;;;;;;;;;5015451;28;6920;-83
2022/10/15 09:08:40;;;;;;;;;;;;;;;;;;5015308;28;9556;-85
2022/10/15 09:11:13;;;;;;;;;;;;;;;;;;5014257;28;7046;-83
2022/10/15 09:13:42;;;;;;;;;;;;;;;;;;5014919;28;8503;-85
2022/10/15 09:16:21;;;;;;;;;;;;;;;;;;5014143;28;7047;-85
2022/10/15 09:18:50;;;;;;;;;;;;;;;;;;5015309;28;8688;-86
2022/10/15 09:21:16;;;;;;;;;;;;;;;;;;5015374;28;8805;-86
2022/10/15 09:23:45;;;;;;;;;;;;;;;;;;5014914;28;7733;-84
2022/10/15 09:26:11;;;;;;;;;;;;;;;;;;5014764;28;8459;-86
2022/10/15 09:28:52;;;;;;;;;;;;;;;;;;5014488;28;8495;-86
2022/10/15 09:31:22;;;;;;;;;;;;;;;;;;5014362;28;7051;-83
2022/10/15 09:33:53;;;;;;;;;;;;;;;;;;5014996;28;8503;-83
2022/10/15 09:36:22;;;;;;;;;;;;;;;;;;5015067;28;7055;-85
2022/10/15 09:39:06;;;;;;;;;;;;;;;;;;5014349;28;8408;-85
2022/10/15 09:41:52;;;;;;;;;;;;;;;;;;5011267;28;7125;-85
2022/10/15 09:44:21;;;;;;;;;;;;;;;;;;5010764;28;7067;-86
2022/10/15 09:46:49;;;;;;;;;;;;;;;;;;5010497;28;8616;-85
2022/10/15 09:49:19;;;;;;;;;;;;;;;;;;5010627;28;8420;-85
2022/10/15 09:51:45;;;;;;;;;;;;;;;;;;5010927;28;8890;-85
2022/10/15 09:54:20;;;;;;;;;;;;;;;;;;5010614;28;6987;-85
2022/10/15 09:56:49;;;;;;;;;;;;;;;;;;5010941;28;8579;-86
2022/10/15 09:59:16;;;;;;;;;;;;;;;;;;5011486;28;8410;-85
2022/10/15 10:01:55;;;;;;;;;;;;;;;;;;5011481;28;7040;-85
2022/10/15 10:04:24;;;;;;;;;;;;;;;;;;5011994;28;8285;-80
2022/10/15 10:06:52;;;;;;;;;;;;;;;;;;5010723;28;8397;-84
2022/10/15 10:09:45;;;;;;;;;;;;;;;;;;5010524;28;7229;-85
2022/10/15 10:12:19;;;;;;;;;;;;;;;;;;4992996;28;7040;-85
2022/10/15 10:15:03;;;;;;;;;;;;;;;;;;5010666;28;8547;-78
2022/10/15 10:17:30;;;;;;;;;;;;;;;;;;5010312;28;7064;-84
2022/10/15 10:20:01;;;;;;;;;;;;;;;;;;5012316;28;7165;-85
2022/10/15 10:22:27;;;;;;;;;;;;;;;;;;5013974;28;7384;-83
2022/10/15 10:24:53;;;;;;;;;;;;;;;;;;5013755;28;8796;-85
2022/10/15 10:27:19;;;;;;;;;;;;;;;;;;4998535;28;7111;-83
2022/10/15 10:29:49;;;;;;;;;;;;;;;;;;5013694;28;8701;-84
2022/10/15 10:32:25;;;;;;;;;;;;;;;;;;5013700;28;7390;-84
2022/10/15 10:34:51;;;;;;;;;;;;;;;;;;5013816;28;8382;-86
2022/10/15 10:37:17;;;;;;;;;;;;;;;;;;5015913;28;8368;-85
2022/10/15 10:39:43;;;;;;;;;;;;;;;;;;4999446;28;6995;-86
2022/10/15 10:42:24;;;;;;;;;;;;;;;;;;5013653;28;7179;-86
2022/10/15 10:44:52;;;;;;;;;;;;;;;;;;5014109;28;8400;-85
2022/10/15 10:47:19;;;;;;;;;;;;;;;;;;5013931;28;8489;-85
2022/10/15 10:49:47;;;;;;;;;;;;;;;;;;5013857;28;7186;-85
2022/10/15 10:52:25;;;;;;;;;;;;;;;;;;5013717;28;7274;-85
2022/10/15 10:54:56;;;;;;;;;;;;;;;;;;5014390;28;7454;-83
2022/10/15 10:57:30;;;;;;;;;;;;;;;;;;5014946;28;7252;-84
2022/10/15 10:59:56;;;;;;;;;;;;;;;;;;5013240;28;8409;-83
2022/10/15 11:02:22;;;;;;;;;;;;;;;;;;5014048;28;7033;-83
2022/10/15 11:04:48;;;;;;;;;;;;;;;;;;5013443;28;8376;-82
2022/10/15 11:07:16;;;;;;;;;;;;;;;;;;5014031;28;8395;-83
2022/10/15 11:09:52;;;;;;;;;;;;;;;;;;5013824;28;7462;-85
2022/10/15 11:12:32;;;;;;;;;;;;;;;;;;5013433;28;9122;-85
2022/10/15 11:15:01;;;;;;;;;;;;;;;;;;5012837;28;7049;-84
2022/10/15 11:17:45;;;;;;;;;;;;;;;;;;5013911;28;7046;-83
2022/10/15 11:20:23;;;;;;;;;;;;;;;;;;5013680;28;7019;-84
2022/10/15 11:23:10;;;;;;;;;;;;;;;;;;5013638;28;8454;-78
2022/10/15 11:25:42;;;;;;;;;;;;;;;;;;5011981;28;8641;-77
2022/10/15 11:28:22;;;;;;;;;;;;;;;;;;5012538;28;8506;-81
2022/10/15 11:31:08;;;;;;;;;;;;;;;;;;5012471;28;8337;-85
2022/10/15 11:33:52;;;;;;;;;;;;;;;;;;4995583;28;8787;-80
2022/10/15 11:36:17;;;;;;;;;;;;;;;;;;5012074;28;7049;-78
2022/10/15 11:38:52;;;;;;;;;;;;;;;;;;5008587;28;9247;-79
2022/10/15 11:41:23;;;;;;;;;;;;;;;;;;5012599;28;8389;-79
2022/10/15 11:43:58;;;;;;;;;;;;;;;;;;5003626;28;8439;-78
2022/10/15 11:46:38;;;;;;;;;;;;;;;;;;5001393;28;8780;-81
2022/10/15 11:49:07;;;;;;;;;;;;;;;;;;4994735;28;8390;-79
2022/10/15 11:52:03;;;;;;;;;;;;;;;;;;5007275;28;8757;-80
2022/10/15 11:54:39;;;;;;;;;;;;;;;;;;4972238;28;8589;-83
2022/10/15 11:57:09;;;;;;;;;;;;;;;;;;4994099;28;8423;-83
2022/10/15 11:59:43;;;;;;;;;;;;;;;;;;4994174;28;7043;-83
2022/10/15 12:02:31;;;;;;;;;;;;;;;;;;5011976;28;8502;-86
2022/10/15 12:05:00;;;;;;;;;;;;;;;;;;4995290;28;8687;-85
2022/10/15 12:07:38;;;;;;;;;;;;;;;;;;5011864;28;8430;-86
2022/10/15 12:10:21;;;;;;;;;;;;;;;;;;5011840;28;8516;-86
2022/10/15 12:13:02;;;;;;;;;;;;;;;;;;5012052;28;8532;-86
2022/10/15 12:16:06;;;;;;;;;;;;;;;;;;5012127;28;8912;-87
2022/10/15 12:18:40;;;;;;;;;;;;;;;;;;5015224;28;8801;-85
2022/10/15 12:21:24;;;;;;;;;;;;;;;;;;5014498;28;7197;-84
2022/10/15 12:23:50;;;;;;;;;;;;;;;;;;5000204;28;8765;-84
2022/10/15 12:26:27;;;;;;;;;;;;;;;;;;5015519;28;7245;-81
2022/10/15 12:28:55;;;;;;;;;;;;;;;;;;5016136;28;7429;-86
2022/10/15 12:31:20;;;;;;;;;;;;;;;;;;5015306;28;8400;-80
2022/10/15 12:33:49;;;;;;;;;;;;;;;;;;5015029;28;8431;-83
2022/10/15 12:36:18;;;;;;;;;;;;;;;;;;5015168;28;8436;-85
2022/10/15 12:39:10;;;;;;;;;;;;;;;;;;5016835;28;8405;-81
2022/10/15 12:41:42;;;;;;;;;;;;;;;;;;4996699;28;8446;-84
2022/10/15 12:44:17;;;;;;;;;;;;;;;;;;5002560;28;8403;-84
2022/10/15 12:46:43;;;;;;;;;;;;;;;;;;5013994;28;8538;-82
2022/10/15 12:49:31;;;;;;;;;;;;;;;;;;5001625;28;7131;-84
2022/10/15 12:51:57;;;;;;;;;;;;;;;;;;5009870;28;8402;-81
2022/10/15 12:54:29;;;;;;;;;;;;;;;;;;5021600;28;8457;-81
2022/10/15 12:56:55;;;;;;;;;;;;;;;;;;5021359;28;8706;-76
2022/10/15 12:59:49;;;;;;;;;;;;;;;;;;5016815;28;8649;-86
2022/10/15 13:02:44;;;;;;;;;;;;;;;;;;5018929;28;8424;-80
2022/10/15 13:05:29;;;;;;;;;;;;;;;;;;4997025;28;8410;-78
2022/10/15 13:07:57;;;;;;;;;;;;;;;;;;5003946;28;7370;-77
2022/10/15 13:10:26;;;;;;;;;;;;;;;;;;5021162;28;7022;-76
2022/10/15 13:12:55;;;;;;;;;;;;;;;;;;5021646;28;7072;-76
2022/10/15 13:15:23;;;;;;;;;;;;;;;;;;5012025;28;7142;-77
2022/10/15 13:17:49;;;;;;;;;;;;;;;;;;4999087;28;8810;-84
2022/10/15 13:20:35;;;;;;;;;;;;;;;;;;4997843;28;8537;-81
2022/10/15 13:23:10;;;;;;;;;;;;;;;;;;4995675;28;8845;-86
2022/10/15 13:25:35;;;;;;;;;;;;;;;;;;4992314;28;7592;-85
2022/10/15 13:28:01;;;;;;;;;;;;;;;;;;4981210;28;8566;-79
2022/10/15 13:30:26;;;;;;;;;;;;;;;;;;4983183;28;8301;-76
2022/10/15 13:32:54;;;;;;;;;;;;;;;;;;4986217;28;8641;-76
2022/10/15 13:35:31;;;;;;;;;;;;;;;;;;4984877;28;8661;-77
2022/10/15 13:37:59;;;;;;;;;;;;;;;;;;4985502;28;8538;-77
2022/10/15 13:40:26;;;;;;;;;;;;;;;;;;5001819;28;7019;-78
2022/10/15 13:42:59;;;;;;;;;;;;;;;;;;4978054;28;8305;-84
2022/10/15 13:45:25;;;;;;;;;;;;;;;;;;4979105;28;7142;-83
2022/10/15 13:47:52;;;;;;;;;;;;;;;;;;4980222;28;7034;-81
2022/10/15 13:50:23;;;;;;;;;;;;;;;;;;4985326;28;9494;-77
2022/10/15 13:52:58;;;;;;;;;;;;;;;;;;5001563;28;7482;-77
2022/10/15 13:55:27;;;;;;;;;;;;;;;;;;5000752;28;8723;-77
2022/10/15 13:57:59;;;;;;;;;;;;;;;;;;4986660;28;7236;-77
2022/10/15 14:00:27;;;;;;;;;;;;;;;;;;4986664;28;8427;-77
2022/10/15 14:03:13;;;;;;;;;;;;;;;;;;4986680;28;8578;-77
2022/10/15 14:05:40;;;;;;;;;;;;;;;;;;4986759;28;6885;-77
2022/10/15 14:08:13;;;;;;;;;;;;;;;;;;4986699;28;7421;-77
2022/10/15 14:10:39;;;;;;;;;;;;;;;;;;4986642;28;8493;-77
2022/10/15 14:13:04;;;;;;;;;;;;;;;;;;4986368;28;8385;-77
2022/10/15 14:15:39;;;;;;;;;;;;;;;;;;4986995;28;8438;-76
2022/10/15 14:18:04;;;;;;;;;;;;;;;;;;5003177;28;8570;-76
2022/10/15 14:20:30;;;;;;;;;;;;;;;;;;4987163;28;7051;-76
2022/10/15 14:22:56;;;;;;;;;;;;;;;;;;4987012;28;8494;-76
2022/10/15 14:25:23;;;;;;;;;;;;;;;;;;4986858;28;8444;-77
2022/10/15 14:27:49;;;;;;;;;;;;;;;;;;4986732;28;7207;-78
2022/10/15 14:30:31;;;;;;;;;;;;;;;;;;4986834;28;8450;-78
2022/10/15 14:32:57;;;;;;;;;;;;;;;;;;4986942;28;8424;-78
2022/10/15 14:35:22;;;;;;;;;;;;;;;;;;4986849;28;8777;-77
2022/10/15 14:37:57;;;;;;;;;;;;;;;;;;5002917;28;9513;-77
2022/10/15 14:40:23;;;;;;;;;;;;;;;;;;4986789;28;8393;-77
2022/10/15 14:42:51;;;;;;;;;;;;;;;;;;4986681;28;7156;-77
2022/10/15 14:45:17;;;;;;;;;;;;;;;;;;5003009;28;7167;-77
2022/10/15 14:47:48;;;;;;;;;;;;;;;;;;5002828;28;8427;-77
2022/10/15 14:50:14;;;;;;;;;;;;;;;;;;4986565;28;8696;-77
2022/10/15 14:52:45;;;;;;;;;;;;;;;;;;4986536;28;8531;-77
2022/10/15 14:55:13;;;;;;;;;;;;;;;;;;4986695;28;8577;-77
2022/10/15 14:57:42;;;;;;;;;;;;;;;;;;5003176;28;8730;-77
2022/10/15 15:00:21;;;;;;;;;;;;;;;;;;4986854;28;8705;-77
2022/10/15 15:02:47;;;;;;;;;;;;;;;;;;4986808;28;8329;-77
2022/10/15 15:05:12;;;;;;;;;;;;;;;;;;4987402;28;8703;-77
2022/10/15 15:07:39;;;;;;;;;;;;;;;;;;5006316;28;8742;-77
2022/10/15 15:10:06;;;;;;;;;;;;;;;;;;4989854;28;8906;-77
2022/10/15 15:12:33;;;;;;;;;;;;;;;;;;4989855;28;8347;-77
2022/10/15 15:14:59;;;;;;;;;;;;;;;;;;4990305;28;7155;-77
2022/10/15 15:17:26;;;;;;;;;;;;;;;;;;4990098;28;7161;-77
2022/10/15 15:19:53;;;;;;;;;;;;;;;;;;4989943;28;8818;-76
2022/10/15 15:22:25;;;;;;;;;;;;;;;;;;4989847;28;7328;-76
2022/10/15 15:24:50;;;;;;;;;;;;;;;;;;5006247;28;8408;-77
2022/10/15 15:27:27;;;;;;;;;;;;;;;;;;4989694;28;8700;-77
2022/10/15 15:29:54;;;;;;;;;;;;;;;;;;4989626;28;7172;-77
2022/10/15 15:32:20;;;;;;;;;;;;;;;;;;4989558;28;7151;-76
2022/10/15 15:34:47;;;;;;;;;;;;;;;;;;4988527;28;6999;-77
2022/10/15 15:37:14;;;;;;;;;;;;;;;;;;4989457;28;8667;-77
2022/10/15 15:39:40;;;;;;;;;;;;;;;;;;4973429;28;8423;-77
2022/10/15 15:42:07;;;;;;;;;;;;;;;;;;4989159;28;7136;-77
2022/10/15 15:44:33;;;;;;;;;;;;;;;;;;4989773;28;7017;-77
2022/10/15 15:46:58;;;;;;;;;;;;;;;;;;4989431;28;8408;-77
2022/10/15 15:49:24;;;;;;;;;;;;;;;;;;4989724;28;7033;-77
2022/10/15 15:51:49;;;;;;;;;;;;;;;;;;4989345;28;8412;-77
2022/10/15 15:54:15;;;;;;;;;;;;;;;;;;4989389;28;8484;-77
2022/10/15 15:56:41;;;;;;;;;;;;;;;;;;4989190;28;8415;-77
2022/10/15 15:59:06;;;;;;;;;;;;;;;;;;4989254;28;8282;-77
2022/10/15 16:01:32;;;;;;;;;;;;;;;;;;4989217;28;7000;-77
2022/10/15 16:03:57;;;;;;;;;;;;;;;;;;4989074;28;8665;-77
2022/10/15 16:06:22;;;;;;;;;;;;;;;;;;4988893;28;8697;-77
2022/10/15 16:08:51;;;;;;;;;;;;;;;;;;4989751;28;8689;-77
2022/10/15 16:11:17;;;;;;;;;;;;;;;;;;4988772;28;7062;-77
2022/10/15 16:13:43;;;;;;;;;;;;;;;;;;4989312;28;8713;-77
2022/10/15 16:16:09;;;;;;;;;;;;;;;;;;4988318;28;8401;-77
2022/10/15 16:18:36;;;;;;;;;;;;;;;;;;4988080;28;8429;-77
2022/10/15 16:21:02;;;;;;;;;;;;;;;;;;4988808;28;8611;-77
2022/10/15 16:23:28;;;;;;;;;;;;;;;;;;4988884;28;8430;-77
2022/10/15 16:25:56;;;;;;;;;;;;;;;;;;4988416;28;7109;-77
2022/10/15 16:28:22;;;;;;;;;;;;;;;;;;4988939;28;8710;-77
2022/10/15 16:30:47;;;;;;;;;;;;;;;;;;4988400;28;7010;-77
2022/10/15 16:33:13;;;;;;;;;;;;;;;;;;4988574;28;8625;-77
2022/10/15 16:35:40;;;;;;;;;;;;;;;;;;4988403;28;7249;-76
2022/10/15 16:38:06;;;;;;;;;;;;;;;;;;4988467;28;8399;-76
2022/10/15 16:40:32;;;;;;;;;;;;;;;;;;4988403;28;8388;-76
2022/10/15 16:42:58;;;;;;;;;;;;;;;;;;4988037;28;7157;-76
2022/10/15 16:45:23;;;;;;;;;;;;;;;;;;4988183;28;6996;-76
2022/10/15 16:47:49;;;;;;;;;;;;;;;;;;4987205;28;7025;-80
2022/10/15 16:51:14;;;;;;;;;;;;;;;;;;5105340;27;6610;-63
2022/10/15 16:53:44;;;;;;;;;;;;;;;;;;5052344;28;7022;-63
2022/10/15 16:56:29;;;;;;;;;;;;;;;;;;5052086;28;7306;-63
2022/10/15 16:58:55;;;;;;;;;;;;;;;;;;5052066;28;7336;-61
2022/10/15 17:01:22;;;;;;;;;;;;;;;;;;5052394;28;7165;-61
2022/10/15 17:03:49;;;;;;;;;;;;;;;;;;5051885;28;7469;-61
2022/10/15 17:06:21;;;;;;;;;;;;;;;;;;5052019;28;7158;-61
2022/10/15 17:11:07;;;;;;;;;;;;;;;;;;5132273;27;6940;-61
2022/10/15 17:13:33;;;;;;;;;;;;;;;;;;5112892;28;7210;-61
2022/10/15 17:16:13;;;;;;;;;;;;;;;;;;5113538;28;6919;-61
2022/10/15 17:18:39;;;;;;;;;;;;;;;;;;5110486;28;6965;-61